createdAt,value
2019-02-19T00:00:57.672Z,17.70
2019-02-19T00:03:25.788Z,18.90
2019-02-19T00:05:54.061Z,18.30
2019-02-19T00:08:22.276Z,17.80
2019-02-19T00:10:50.605Z,16.90
2019-02-19T00:13:18.721Z,17.03
2019-02-19T00:15:46.998Z,16.07
2019-02-19T00:18:15.139Z,17.43
2019-02-19T00:20:43.383Z,17.93
2019-02-19T00:23:11.837Z,17.90
2019-02-19T00:25:40.671Z,17.47
2019-02-19T00:28:15.141Z,18.03
2019-02-19T00:30:43.349Z,16.47
2019-02-19T00:33:11.565Z,16.47
2019-02-19T00:35:39.786Z,16.07
2019-02-19T00:38:08.105Z,17.53
2019-02-19T00:40:36.216Z,20.73
2019-02-19T00:43:04.489Z,23.27
2019-02-19T00:45:57.969Z,23.93
2019-02-19T00:48:26.239Z,20.20
2019-02-19T00:50:54.353Z,21.63
2019-02-19T00:53:22.593Z,21.17
2019-02-19T00:55:50.804Z,23.33
2019-02-19T00:58:19.130Z,25.27
2019-02-19T01:00:52.893Z,24.63
2019-02-19T01:03:21.008Z,25.63
2019-02-19T01:05:49.348Z,26.37
2019-02-19T01:08:17.564Z,25.83
2019-02-19T01:10:45.837Z,23.67
2019-02-19T01:13:38.668Z,21.70
2019-02-19T01:16:07.041Z,21.93
2019-02-19T01:18:35.272Z,21.23
2019-02-19T01:21:03.677Z,21.00
2019-02-19T01:23:32.466Z,23.27
2019-02-19T01:26:00.853Z,22.23
2019-02-19T01:28:29.165Z,22.27
2019-02-19T01:30:57.502Z,23.03
2019-02-19T01:33:25.680Z,23.03
2019-02-19T01:35:54.009Z,24.00
2019-02-19T01:38:22.157Z,23.23
2019-02-19T01:40:50.399Z,24.13
2019-02-19T01:43:18.601Z,23.70
2019-02-19T01:45:46.912Z,22.03
2019-02-19T01:48:15.288Z,23.67
2019-02-19T01:50:44.679Z,22.73
2019-02-19T01:53:12.969Z,27.00
2019-02-19T01:55:41.172Z,24.00
2019-02-19T01:58:09.356Z,22.63
2019-02-19T02:00:37.677Z,21.90
2019-02-19T02:03:05.857Z,20.30
2019-02-19T02:05:33.980Z,20.17
2019-02-19T02:08:02.194Z,18.73
2019-02-19T02:10:30.346Z,19.30
2019-02-19T02:12:58.458Z,18.37
2019-02-19T02:15:26.678Z,15.57
2019-02-19T02:17:54.793Z,17.67
2019-02-19T02:20:23.189Z,18.07
2019-02-19T02:22:51.429Z,17.63
2019-02-19T02:25:19.570Z,17.43
2019-02-19T02:27:47.689Z,17.87
2019-02-19T02:30:15.914Z,16.87
2019-02-19T02:32:44.037Z,16.87
2019-02-19T02:35:12.190Z,18.20
2019-02-19T02:37:40.465Z,18.27
2019-02-19T02:40:08.702Z,18.30
2019-02-19T02:42:36.824Z,16.60
2019-02-19T02:45:05.146Z,19.03
2019-02-19T02:47:33.276Z,17.63
2019-02-19T02:50:01.863Z,16.63
2019-02-19T02:52:30.098Z,17.90
2019-02-19T02:54:58.453Z,17.43
2019-02-19T02:57:26.630Z,17.83
2019-02-19T02:59:54.845Z,18.03
2019-02-19T03:02:22.977Z,18.03
2019-02-19T03:04:51.101Z,21.03
2019-02-19T03:07:38.726Z,17.57
2019-02-19T03:10:07.082Z,17.07
2019-02-19T03:12:35.325Z,17.47
2019-02-19T03:15:04.088Z,16.20
2019-02-19T03:17:32.414Z,16.53
2019-02-19T03:20:00.596Z,16.37
2019-02-19T03:22:28.807Z,17.07
2019-02-19T03:24:56.983Z,14.50
2019-02-19T03:27:25.194Z,14.77
2019-02-19T03:29:53.437Z,13.90
2019-02-19T03:32:21.682Z,13.90
2019-02-19T03:34:49.849Z,15.70
2019-02-19T03:37:18.074Z,15.33
2019-02-19T03:39:46.365Z,18.73
2019-02-19T03:42:14.597Z,17.97
2019-02-19T03:44:43.506Z,16.80
2019-02-19T03:47:11.796Z,17.23
2019-02-19T03:49:40.380Z,15.30
2019-02-19T03:52:08.694Z,16.00
2019-02-19T03:54:36.889Z,16.40
2019-02-19T03:57:05.177Z,17.67
2019-02-19T03:59:33.566Z,8.43
2019-02-19T04:02:02.035Z,11.67
2019-02-19T04:04:30.276Z,13.30
2019-02-19T04:06:58.507Z,16.23
2019-02-19T04:09:26.697Z,16.47
2019-02-19T04:11:55.913Z,15.30
2019-02-19T04:14:24.140Z,15.47
2019-02-19T04:16:52.321Z,16.53
2019-02-19T04:19:21.898Z,16.37
2019-02-19T04:21:50.020Z,15.97
2019-02-19T04:24:18.265Z,15.17
2019-02-19T04:26:46.846Z,15.80
2019-02-19T04:29:15.253Z,15.53
2019-02-19T04:31:47.281Z,15.93
2019-02-19T04:34:15.514Z,14.47
2019-02-19T04:36:44.427Z,16.00
2019-02-19T04:39:12.637Z,16.07
2019-02-19T04:41:41.505Z,17.10
2019-02-19T04:44:09.836Z,15.57
2019-02-19T04:46:38.154Z,16.57
2019-02-19T04:49:06.933Z,16.00
2019-02-19T04:51:35.577Z,20.00
2019-02-19T04:54:04.500Z,17.30
2019-02-19T04:56:32.683Z,15.13
2019-02-19T04:59:01.281Z,15.07
2019-02-19T05:01:29.643Z,14.00
2019-02-19T05:03:57.914Z,14.97
2019-02-19T05:06:26.404Z,14.50
2019-02-19T05:08:55.102Z,15.20
2019-02-19T05:11:23.317Z,14.73
2019-02-19T05:13:51.618Z,15.77
2019-02-19T05:16:19.803Z,16.60
2019-02-19T05:18:48.085Z,15.43
2019-02-19T05:21:16.205Z,15.80
2019-02-19T05:23:44.501Z,17.27
2019-02-19T05:26:13.169Z,16.47
2019-02-19T05:28:42.105Z,16.57
2019-02-19T05:31:10.709Z,17.07
2019-02-19T05:33:39.574Z,18.90
2019-02-19T05:36:09.094Z,17.47
2019-02-19T05:38:37.884Z,12.97
2019-02-19T05:41:06.004Z,14.23
2019-02-19T05:43:34.630Z,14.80
2019-02-19T05:46:03.194Z,14.80
2019-02-19T05:48:31.853Z,16.57
2019-02-19T05:51:01.927Z,17.17
2019-02-19T05:53:30.150Z,17.37
2019-02-19T05:55:58.901Z,17.63
2019-02-19T05:58:27.084Z,16.70
2019-02-19T06:00:55.260Z,16.60
2019-02-19T06:03:23.576Z,15.73
2019-02-19T06:05:53.119Z,17.17
2019-02-19T06:08:21.375Z,16.23
2019-02-19T06:10:49.629Z,15.40
2019-02-19T06:13:18.562Z,14.27
2019-02-19T06:15:46.790Z,15.60
2019-02-19T06:18:15.072Z,15.70
2019-02-19T06:20:43.654Z,14.03
2019-02-19T06:23:11.966Z,11.97
2019-02-19T06:25:40.764Z,10.43
2019-02-19T06:28:09.295Z,11.03
2019-02-19T06:30:37.567Z,11.23
2019-02-19T06:33:06.256Z,13.47
2019-02-19T06:35:35.142Z,12.93
2019-02-19T06:38:03.456Z,15.67
2019-02-19T06:40:31.781Z,15.07
2019-02-19T06:43:00.128Z,14.67
2019-02-19T06:45:28.452Z,15.93
2019-02-19T06:47:57.092Z,15.83
2019-02-19T06:50:26.036Z,14.87
2019-02-19T06:52:54.593Z,14.83
2019-02-19T06:55:22.873Z,15.63
2019-02-19T06:58:15.593Z,16.70
2019-02-19T07:00:43.901Z,16.63
2019-02-19T07:03:37.428Z,15.87
2019-02-19T07:06:05.744Z,17.27
2019-02-19T07:08:34.153Z,18.77
2019-02-19T07:11:02.441Z,18.27
2019-02-19T07:13:30.873Z,16.57
2019-02-19T07:15:59.133Z,13.90
2019-02-19T07:18:28.266Z,13.53
2019-02-19T07:20:57.315Z,15.03
2019-02-19T07:23:25.983Z,16.43
2019-02-19T07:25:54.641Z,13.97
2019-02-19T07:28:22.973Z,12.40
2019-02-19T07:30:51.249Z,11.80
2019-02-19T07:33:19.374Z,12.53
2019-02-19T07:35:48.921Z,15.47
2019-02-19T07:38:17.132Z,11.63
2019-02-19T07:40:45.440Z,10.53
2019-02-19T07:43:13.746Z,10.83
2019-02-19T07:45:42.068Z,8.63
2019-02-19T07:48:10.185Z,8.30
2019-02-19T07:50:38.376Z,8.50
2019-02-19T07:53:06.591Z,8.77
2019-02-19T07:55:35.078Z,9.57
2019-02-19T07:58:03.251Z,8.50
2019-02-19T08:00:31.526Z,9.87
2019-02-19T08:02:59.752Z,15.13
2019-02-19T08:05:27.901Z,17.47
2019-02-19T08:07:56.129Z,18.10
2019-02-19T08:10:24.249Z,19.30
2019-02-19T08:12:53.233Z,20.43
2019-02-19T08:15:22.152Z,19.47
2019-02-19T08:17:50.275Z,18.77
2019-02-19T08:20:18.564Z,18.73
2019-02-19T08:22:47.037Z,20.57
2019-02-19T08:25:16.281Z,16.73
2019-02-19T08:27:44.617Z,15.83
2019-02-19T08:30:13.454Z,11.57
2019-02-19T08:32:42.039Z,10.40
2019-02-19T08:35:10.823Z,11.60
2019-02-19T08:37:40.062Z,11.57
2019-02-19T08:40:08.660Z,10.43
2019-02-19T08:42:37.287Z,9.90
2019-02-19T08:45:06.021Z,9.50
2019-02-19T08:47:42.334Z,9.87
2019-02-19T08:50:05.225Z,9.50
2019-02-19T08:52:33.989Z,9.33
2019-02-19T08:55:02.610Z,10.10
2019-02-19T08:57:30.861Z,8.53
2019-02-19T08:59:59.412Z,8.70
2019-02-19T09:02:28.431Z,6.60
2019-02-19T09:04:56.946Z,8.27
2019-02-19T09:07:25.868Z,8.73
2019-02-19T09:09:54.880Z,8.60
2019-02-19T09:12:23.481Z,9.23
2019-02-19T09:14:51.874Z,7.70
2019-02-19T09:17:20.053Z,8.83
2019-02-19T09:19:51.045Z,8.97
2019-02-19T09:22:19.165Z,9.03
2019-02-19T09:24:47.737Z,9.60
2019-02-19T09:27:40.929Z,8.07
2019-02-19T09:30:12.025Z,8.87
2019-02-19T09:32:40.757Z,9.87
2019-02-19T09:35:09.712Z,10.40
2019-02-19T09:37:38.333Z,7.20
2019-02-19T09:40:07.057Z,7.30
2019-02-19T09:42:35.392Z,7.47
2019-02-19T09:45:03.888Z,7.90
2019-02-19T09:47:32.144Z,10.10
2019-02-19T09:50:00.385Z,9.17
2019-02-19T09:52:29.209Z,11.13
2019-02-19T09:54:58.834Z,10.20
2019-02-19T09:57:27.445Z,9.60
2019-02-19T09:59:55.949Z,9.77
2019-02-19T10:02:24.770Z,9.23
2019-02-19T10:04:53.616Z,8.67
2019-02-19T10:07:22.610Z,9.83
2019-02-19T10:09:52.523Z,9.40
2019-02-19T10:12:21.101Z,7.80
2019-02-19T10:14:49.479Z,7.00
2019-02-19T10:17:18.273Z,5.97
2019-02-19T10:19:48.189Z,7.60
2019-02-19T10:22:17.021Z,6.90
2019-02-19T10:24:45.868Z,7.93
2019-02-19T10:27:14.438Z,7.70
2019-02-19T10:29:43.180Z,7.93
2019-02-19T10:32:30.711Z,7.30
2019-02-19T10:34:59.343Z,7.17
2019-02-19T10:37:28.185Z,7.10
2019-02-19T10:39:57.280Z,7.23
2019-02-19T10:42:25.809Z,7.17
2019-02-19T10:44:54.377Z,7.33
2019-02-19T10:47:23.008Z,8.43
2019-02-19T10:49:51.771Z,7.60
2019-02-19T10:52:20.206Z,7.07
2019-02-19T10:54:48.839Z,6.90
2019-02-19T10:57:17.706Z,7.20
2019-02-19T10:59:46.762Z,6.47
2019-02-19T11:02:15.182Z,6.90
2019-02-19T11:04:43.920Z,7.90
2019-02-19T11:07:12.549Z,8.20
2019-02-19T11:09:41.223Z,32.80
2019-02-19T11:12:09.944Z,28.27
2019-02-19T11:14:38.877Z,9.95
2019-02-19T11:17:07.794Z,15.67
2019-02-19T11:19:36.237Z,8.33
2019-02-19T11:22:04.942Z,7.50
2019-02-19T11:24:33.663Z,8.87
2019-02-19T11:29:48.825Z,7.37
2019-02-19T11:32:17.153Z,7.33
2019-02-19T11:34:45.581Z,7.07
2019-02-19T11:37:14.157Z,6.90
2019-02-19T11:39:43.001Z,6.10
2019-02-19T11:42:36.066Z,6.00
2019-02-19T11:45:04.560Z,6.10
2019-02-19T11:47:33.265Z,7.27
2019-02-19T11:50:02.010Z,7.93
2019-02-19T11:52:31.769Z,6.93
2019-02-19T11:55:00.612Z,7.00
2019-02-19T11:57:29.414Z,5.93
2019-02-19T11:59:58.129Z,7.17
2019-02-19T12:02:32.900Z,5.90
2019-02-19T12:04:58.377Z,6.80
2019-02-19T12:07:26.804Z,8.17
2019-02-19T12:09:55.393Z,7.03
2019-02-19T12:12:23.697Z,6.57
2019-02-19T12:14:53.048Z,6.73
2019-02-19T12:17:21.240Z,8.17
2019-02-19T12:19:49.477Z,8.20
2019-02-19T12:22:17.689Z,9.47
2019-02-19T12:24:45.920Z,8.23
2019-02-19T12:27:14.147Z,7.13
2019-02-19T12:29:42.405Z,9.87
2019-02-19T12:32:10.561Z,9.63
2019-02-19T12:34:39.749Z,7.53
2019-02-19T12:37:08.121Z,7.57
2019-02-19T12:39:36.409Z,8.53
2019-02-19T12:42:04.617Z,9.43
2019-02-19T12:44:33.102Z,11.43
2019-02-19T12:47:02.028Z,13.50
2019-02-19T12:49:31.284Z,8.23
2019-02-19T12:52:00.386Z,7.90
2019-02-19T12:54:29.401Z,7.10
2019-02-19T12:56:58.013Z,7.87
2019-02-19T12:59:26.637Z,7.20
2019-02-19T13:01:55.931Z,7.47
2019-02-19T13:04:28.456Z,7.70
2019-02-19T13:06:57.094Z,12.40
2019-02-19T13:09:25.869Z,9.77
2019-02-19T13:11:54.477Z,23.97
2019-02-19T13:14:48.121Z,9.43
2019-02-19T13:17:16.790Z,7.70
2019-02-19T13:19:45.877Z,7.70
2019-02-19T13:22:16.299Z,7.40
2019-02-19T13:24:46.009Z,7.63
2019-02-19T13:27:14.568Z,7.50
2019-02-19T13:29:44.089Z,10.80
2019-02-19T13:32:13.401Z,8.90
2019-02-19T13:34:42.142Z,9.77
2019-02-19T13:37:10.844Z,9.00
2019-02-19T13:39:39.517Z,19.83
2019-02-19T13:42:08.041Z,12.13
2019-02-19T13:44:36.326Z,9.83
2019-02-19T13:47:05.574Z,9.10
2019-02-19T13:49:53.308Z,7.73
2019-02-19T13:52:46.909Z,8.53
2019-02-19T13:55:21.357Z,9.83
2019-02-19T13:57:49.687Z,9.57
2019-02-19T14:00:20.287Z,7.27
2019-02-19T14:02:48.765Z,8.27
2019-02-19T14:05:18.803Z,8.33
2019-02-19T14:07:47.269Z,9.03
2019-02-19T14:10:16.865Z,8.67
2019-02-19T14:12:45.563Z,7.00
2019-02-19T14:15:33.619Z,7.30
2019-02-19T14:18:02.653Z,7.37
2019-02-19T14:20:51.267Z,7.70
2019-02-19T14:23:37.743Z,9.10
2019-02-19T14:26:21.404Z,8.90
2019-02-19T14:29:12.314Z,9.90
2019-02-19T14:31:59.196Z,11.05
2019-02-19T14:34:50.529Z,10.10
2019-02-19T14:37:41.649Z,12.23
2019-02-19T14:40:27.230Z,11.70
2019-02-19T14:43:21.107Z,11.13
2019-02-19T14:46:08.532Z,12.60
2019-02-19T14:48:59.657Z,12.63
2019-02-19T14:51:46.457Z,12.80
2019-02-19T14:54:35.416Z,14.10
2019-02-19T14:57:21.946Z,15.30
2019-02-19T15:00:21.947Z,18.60
2019-02-19T15:03:12.485Z,18.00
2019-02-19T15:06:10.001Z,17.03
2019-02-19T15:09:00.806Z,15.60
2019-02-19T15:11:48.538Z,19.40
2019-02-19T15:14:42.156Z,18.97
2019-02-19T15:17:29.226Z,17.03
2019-02-19T15:20:17.870Z,18.53
2019-02-19T15:23:00.750Z,21.73
2019-02-19T15:26:01.032Z,21.13
2019-02-19T15:28:55.512Z,19.87
2019-02-19T15:31:43.874Z,16.87
2019-02-19T15:34:41.427Z,15.80
2019-02-19T15:37:29.769Z,16.10
2019-02-19T15:40:07.865Z,13.97
2019-02-19T15:43:03.134Z,14.03
2019-02-19T15:45:51.429Z,15.83
2019-02-19T15:48:54.874Z,15.03
2019-02-19T15:51:42.904Z,15.77
2019-02-19T15:54:34.644Z,15.93
2019-02-19T15:57:11.961Z,20.27
2019-02-19T15:59:49.521Z,28.17
2019-02-19T16:02:29.836Z,27.73
2019-02-19T16:05:20.951Z,25.17
2019-02-19T16:07:57.508Z,18.67
2019-02-19T16:10:45.356Z,21.67
2019-02-19T16:13:35.851Z,21.80
2019-02-19T16:16:36.179Z,23.03
2019-02-19T16:19:32.530Z,23.67
2019-02-19T16:22:19.322Z,24.00
2019-02-19T16:25:19.343Z,25.13
2019-02-19T16:28:06.461Z,24.57
2019-02-19T16:30:53.271Z,26.53
2019-02-19T16:33:47.151Z,25.57
2019-02-19T16:36:36.480Z,38.67
2019-02-19T16:39:23.841Z,34.80
2019-02-19T16:42:12.702Z,40.20
2019-02-19T16:45:05.212Z,32.58
2019-02-19T16:47:56.874Z,25.63
2019-02-19T16:50:41.841Z,27.00
2019-02-19T16:53:33.883Z,30.30
2019-02-19T16:56:27.746Z,27.10
2019-02-19T16:59:19.797Z,26.97
2019-02-19T17:02:01.711Z,26.03
2019-02-19T17:04:55.880Z,23.63
2019-02-19T17:07:38.380Z,25.70
2019-02-19T17:10:30.093Z,26.00
2019-02-19T17:13:17.708Z,26.77
2019-02-19T17:16:04.041Z,25.93
2019-02-19T17:19:02.200Z,26.20
2019-02-19T17:21:39.532Z,25.57
2019-02-19T17:24:26.604Z,28.20
2019-02-19T17:27:05.128Z,31.27
2019-02-19T17:29:51.933Z,29.50
2019-02-19T17:32:58.097Z,28.63
2019-02-19T17:35:44.508Z,26.03
2019-02-19T17:38:35.096Z,29.23
2019-02-19T17:41:19.028Z,28.43
2019-02-19T17:43:57.397Z,30.83
2019-02-19T17:46:45.391Z,28.80
2019-02-19T17:49:36.515Z,30.77
2019-02-19T17:52:27.614Z,30.33
2019-02-19T17:55:31.014Z,31.90
2019-02-19T17:58:22.086Z,30.37
2019-02-19T18:01:16.005Z,27.77
2019-02-19T18:03:53.673Z,31.37
2019-02-19T18:06:41.641Z,35.23
2019-02-19T18:09:28.140Z,31.10
2019-02-19T18:12:19.922Z,33.77
2019-02-19T18:15:11.284Z,42.83
2019-02-19T18:17:48.655Z,49.43
2019-02-19T18:20:17.412Z,39.57
2019-02-19T18:22:46.132Z,37.57
2019-02-19T18:25:14.688Z,37.20
2019-02-19T18:27:43.472Z,33.00
2019-02-19T18:30:11.899Z,36.77
2019-02-19T18:32:40.297Z,37.23
2019-02-19T18:35:09.066Z,32.27
2019-02-19T18:37:38.621Z,38.33
2019-02-19T18:40:07.917Z,37.67
2019-02-19T18:42:37.021Z,35.87
2019-02-19T18:45:05.813Z,35.77
2019-02-19T18:47:34.429Z,37.87
2019-02-19T18:50:02.590Z,40.37
2019-02-19T18:52:32.331Z,42.90
2019-02-19T18:55:00.453Z,46.77
2019-02-19T18:57:28.753Z,50.30
2019-02-19T18:59:57.556Z,49.57
2019-02-19T19:02:25.906Z,50.63
2019-02-19T19:04:54.283Z,50.27
2019-02-19T19:07:23.429Z,47.03
2019-02-19T19:09:51.597Z,45.97
2019-02-19T19:12:19.868Z,47.47
2019-02-19T19:14:48.201Z,47.80
2019-02-19T19:17:16.398Z,47.07
2019-02-19T19:19:44.958Z,47.27
2019-02-19T19:22:13.369Z,46.03
2019-02-19T19:24:41.985Z,46.00
2019-02-19T19:27:10.776Z,47.17
2019-02-19T19:29:39.540Z,53.42
2019-02-19T19:32:08.182Z,47.67
2019-02-19T19:34:36.630Z,46.87
2019-02-19T19:37:05.437Z,47.60
2019-02-19T19:39:33.947Z,46.37
2019-02-19T19:42:02.662Z,47.23
2019-02-19T19:44:31.348Z,47.30
2019-02-19T19:47:00.056Z,44.77
2019-02-19T19:49:28.801Z,43.10
2019-02-19T19:51:57.397Z,41.77
2019-02-19T19:54:26.460Z,42.20
2019-02-19T19:56:55.397Z,41.77
2019-02-19T19:59:24.365Z,43.70
2019-02-19T20:01:53.685Z,43.87
2019-02-19T20:04:22.892Z,44.73
2019-02-19T20:06:51.683Z,44.50
2019-02-19T20:09:21.531Z,43.60
2019-02-19T20:11:50.580Z,43.90
2019-02-19T20:14:19.661Z,44.63
2019-02-19T20:16:48.930Z,45.30
2019-02-19T20:19:17.947Z,45.70
2019-02-19T20:21:46.681Z,44.43
2019-02-19T20:24:15.545Z,45.00
2019-02-19T20:26:44.378Z,44.10
2019-02-19T20:29:12.922Z,41.77
2019-02-19T20:31:41.193Z,41.83
2019-02-19T20:34:09.981Z,37.67
2019-02-19T20:36:38.693Z,37.43
2019-02-19T20:39:07.919Z,34.27
2019-02-19T20:41:39.660Z,35.73
2019-02-19T20:44:08.901Z,31.87
2019-02-19T20:46:38.265Z,30.03
2019-02-19T20:49:07.893Z,28.13
2019-02-19T20:51:37.244Z,28.83
2019-02-19T20:54:06.548Z,31.07
2019-02-19T20:56:35.779Z,29.40
2019-02-19T20:59:04.754Z,27.50
2019-02-19T21:01:33.477Z,29.47
2019-02-19T21:04:02.256Z,29.27
2019-02-19T21:06:31.758Z,29.77
2019-02-19T21:09:00.800Z,29.27
2019-02-19T21:11:30.266Z,31.10
2019-02-19T21:16:54.816Z,34.40
2019-02-19T21:19:24.006Z,34.10
2019-02-19T21:21:52.763Z,33.77
2019-02-19T21:24:21.484Z,33.23
2019-02-19T21:26:50.089Z,33.33
2019-02-19T21:29:19.164Z,31.63
2019-02-19T21:32:04.252Z,31.27
2019-02-19T21:34:35.301Z,28.97
2019-02-19T21:37:03.870Z,29.17
2019-02-19T21:39:33.442Z,29.10
2019-02-19T21:42:02.206Z,28.53
2019-02-19T21:44:30.852Z,27.00
2019-02-19T21:46:59.107Z,26.90
2019-02-19T21:49:27.438Z,26.37
2019-02-19T21:51:55.920Z,25.77
2019-02-19T21:54:24.764Z,24.10
2019-02-19T21:56:53.456Z,24.60
2019-02-19T21:59:23.010Z,24.30
2019-02-19T22:01:52.047Z,21.73
2019-02-19T22:04:21.626Z,22.10
2019-02-19T22:06:49.994Z,25.62
2019-02-19T22:09:18.514Z,21.60
2019-02-19T22:11:47.318Z,22.67
2019-02-19T22:14:15.559Z,21.33
2019-02-19T22:16:44.000Z,21.00
2019-02-19T22:19:12.222Z,23.90
2019-02-19T22:21:45.538Z,23.60
2019-02-19T22:24:13.678Z,23.70
2019-02-19T22:26:42.064Z,21.67
2019-02-19T22:29:11.317Z,21.17
2019-02-19T22:31:39.754Z,21.13
2019-02-19T22:34:08.294Z,20.70
2019-02-19T22:36:36.534Z,20.40
2019-02-19T22:39:06.492Z,20.07
2019-02-19T22:41:36.803Z,19.40
2019-02-19T22:44:05.777Z,22.73
2019-02-19T22:46:34.659Z,20.57
2019-02-19T22:49:03.501Z,21.43
2019-02-19T22:51:32.056Z,21.33
2019-02-19T22:54:18.720Z,21.20
2019-02-19T22:56:48.728Z,20.67
2019-02-19T22:59:17.475Z,23.80
2019-02-19T23:02:05.668Z,19.27
2019-02-19T23:04:34.250Z,22.03
2019-02-19T23:07:02.681Z,18.30
2019-02-19T23:09:32.089Z,20.20
2019-02-19T23:12:00.634Z,20.40
2019-02-19T23:14:29.714Z,20.00
2019-02-19T23:16:59.057Z,18.90
2019-02-19T23:19:27.657Z,18.87
2019-02-19T23:21:56.021Z,19.33
2019-02-19T23:24:24.735Z,17.43
2019-02-19T23:26:53.412Z,17.57
2019-02-19T23:29:22.088Z,17.77
2019-02-19T23:31:50.406Z,21.95
2019-02-19T23:34:19.198Z,18.67
2019-02-19T23:36:57.292Z,17.70
2019-02-19T23:39:26.098Z,17.07
2019-02-19T23:41:54.740Z,18.20
2019-02-19T23:44:24.009Z,18.33
2019-02-19T23:46:52.146Z,16.37
2019-02-19T23:49:20.694Z,15.83
2019-02-19T23:51:48.805Z,16.93
2019-02-19T23:54:17.776Z,15.57
2019-02-19T23:56:45.996Z,17.90
2019-02-19T23:59:14.316Z,16.60
